sensor_id;sensor_type;location;lat;lon;timestamp;pressure;altitude;pressure_sealevel;temperature;humidity
48364;BME280;34170;54.364;18.582;2022-12-07T00:01:38;99429.63;;;1.85;100.00
48364;BME280;34170;54.364;18.582;2022-12-07T00:04:09;99421.28;;;1.65;100.00
48364;BME280;34170;54.364;18.582;2022-12-07T00:06:41;99429.34;;;1.64;100.00
48364;BME280;34170;54.364;18.582;2022-12-07T00:09:12;99430.81;;;1.81;100.00
48364;BME280;34170;54.364;18.582;2022-12-07T00:11:40;99418.44;;;1.56;100.00
48364;BME280;34170;54.364;18.582;2022-12-07T00:14:12;99426.13;;;1.71;100.00
48364;BME280;34170;54.364;18.582;2022-12-07T00:16:40;99418.94;;;1.61;100.00
48364;BME280;34170;54.364;18.582;2022-12-07T00:19:09;99412.81;;;1.60;100.00
48364;BME280;34170;54.364;18.582;2022-12-07T00:21:37;99415.78;;;1.68;100.00
48364;BME280;34170;54.364;18.582;2022-12-07T00:24:05;99407.19;;;1.65;100.00
48364;BME280;34170;54.364;18.582;2022-12-07T00:26:35;99409.75;;;1.66;100.00
48364;BME280;34170;54.364;18.582;2022-12-07T00:29:13;99400.63;;;1.45;100.00
48364;BME280;34170;54.364;18.582;2022-12-07T00:31:42;99404.25;;;1.44;100.00
48364;BME280;34170;54.364;18.582;2022-12-07T00:34:17;99403.94;;;1.36;100.00
48364;BME280;34170;54.364;18.582;2022-12-07T00:36:45;99401.06;;;1.51;100.00
48364;BME280;34170;54.364;18.582;2022-12-07T00:39:12;99392.47;;;1.48;100.00
48364;BME280;34170;54.364;18.582;2022-12-07T00:41:40;99412.00;;;1.84;100.00
48364;BME280;34170;54.364;18.582;2022-12-07T00:44:07;99400.66;;;1.82;100.00
48364;BME280;34170;54.364;18.582;2022-12-07T00:46:35;99398.94;;;1.57;100.00
48364;BME280;34170;54.364;18.582;2022-12-07T00:49:02;99402.22;;;1.60;100.00
48364;BME280;34170;54.364;18.582;2022-12-07T00:51:30;99395.66;;;1.53;100.00
48364;BME280;34170;54.364;18.582;2022-12-07T00:53:57;99393.31;;;1.48;100.00
48364;BME280;34170;54.364;18.582;2022-12-07T00:56:27;99400.63;;;1.58;100.00
48364;BME280;34170;54.364;18.582;2022-12-07T00:58:57;99401.66;;;1.68;100.00
48364;BME280;34170;54.364;18.582;2022-12-07T01:01:27;99390.03;;;1.45;100.00
48364;BME280;34170;54.364;18.582;2022-12-07T01:03:55;99396.72;;;1.50;100.00
48364;BME280;34170;54.364;18.582;2022-12-07T01:06:24;99394.09;;;1.50;100.00
48364;BME280;34170;54.364;18.582;2022-12-07T01:08:52;99383.34;;;1.52;100.00
48364;BME280;34170;54.364;18.582;2022-12-07T01:11:23;99373.81;;;1.49;100.00
48364;BME280;34170;54.364;18.582;2022-12-07T01:13:52;99387.19;;;1.48;100.00
48364;BME280;34170;54.364;18.582;2022-12-07T01:16:21;99383.47;;;1.50;100.00
48364;BME280;34170;54.364;18.582;2022-12-07T01:18:51;99383.94;;;1.31;100.00
48364;BME280;34170;54.364;18.582;2022-12-07T01:21:24;99375.91;;;1.20;100.00
48364;BME280;34170;54.364;18.582;2022-12-07T01:23:52;99378.72;;;1.43;100.00
48364;BME280;34170;54.364;18.582;2022-12-07T01:26:22;99385.19;;;1.39;100.00
48364;BME280;34170;54.364;18.582;2022-12-07T01:28:50;99375.13;;;1.44;100.00
48364;BME280;34170;54.364;18.582;2022-12-07T01:31:23;99372.16;;;1.73;100.00
48364;BME280;34170;54.364;18.582;2022-12-07T01:33:54;99378.88;;;1.65;100.00
48364;BME280;34170;54.364;18.582;2022-12-07T01:38:56;99362.50;;;1.84;100.00
48364;BME280;34170;54.364;18.582;2022-12-07T01:41:26;99364.22;;;1.73;100.00
48364;BME280;34170;54.364;18.582;2022-12-07T01:46:52;99372.47;;;1.81;100.00
48364;BME280;34170;54.364;18.582;2022-12-07T01:49:24;99362.47;;;1.60;100.00
48364;BME280;34170;54.364;18.582;2022-12-07T01:52:11;99370.88;;;1.54;100.00
48364;BME280;34170;54.364;18.582;2022-12-07T01:54:42;99369.22;;;1.64;100.00
48364;BME280;34170;54.364;18.582;2022-12-07T01:57:10;99373.06;;;1.60;100.00
48364;BME280;34170;54.364;18.582;2022-12-07T01:59:39;99356.28;;;1.73;100.00
48364;BME280;34170;54.364;18.582;2022-12-07T02:02:11;99355.94;;;1.77;100.00
48364;BME280;34170;54.364;18.582;2022-12-07T02:04:40;99359.25;;;1.92;100.00
48364;BME280;34170;54.364;18.582;2022-12-07T02:07:07;99351.03;;;1.84;100.00
48364;BME280;34170;54.364;18.582;2022-12-07T02:09:35;99339.41;;;1.74;100.00
48364;BME280;34170;54.364;18.582;2022-12-07T02:12:03;99342.78;;;1.76;100.00
48364;BME280;34170;54.364;18.582;2022-12-07T02:14:31;99331.22;;;1.77;100.00
48364;BME280;34170;54.364;18.582;2022-12-07T02:28:12;99314.53;;;1.63;100.00
48364;BME280;34170;54.364;18.582;2022-12-07T02:30:46;99318.22;;;1.74;100.00
48364;BME280;34170;54.364;18.582;2022-12-07T02:33:16;99320.69;;;1.88;100.00
48364;BME280;34170;54.364;18.582;2022-12-07T02:36:08;99301.13;;;1.78;100.00
48364;BME280;34170;54.364;18.582;2022-12-07T02:38:45;99310.63;;;1.80;100.00
48364;BME280;34170;54.364;18.582;2022-12-07T02:41:20;99309.31;;;1.86;100.00
48364;BME280;34170;54.364;18.582;2022-12-07T02:43:54;99300.75;;;1.82;100.00
48364;BME280;34170;54.364;18.582;2022-12-07T02:46:35;99295.59;;;1.81;100.00
48364;BME280;34170;54.364;18.582;2022-12-07T02:49:05;99303.84;;;2.00;100.00
48364;BME280;34170;54.364;18.582;2022-12-07T02:51:39;99294.19;;;1.88;100.00
48364;BME280;34170;54.364;18.582;2022-12-07T02:54:12;99291.19;;;1.68;100.00
48364;BME280;34170;54.364;18.582;2022-12-07T02:59:33;99294.84;;;1.79;100.00
48364;BME280;34170;54.364;18.582;2022-12-07T03:08:33;99282.78;;;1.50;100.00
48364;BME280;34170;54.364;18.582;2022-12-07T03:11:07;99277.72;;;1.47;100.00
48364;BME280;34170;54.364;18.582;2022-12-07T03:16:21;99264.78;;;1.43;100.00
48364;BME280;34170;54.364;18.582;2022-12-07T03:18:57;99276.34;;;1.66;100.00
48364;BME280;34170;54.364;18.582;2022-12-07T03:21:55;99276.34;;;1.42;100.00
48364;BME280;34170;54.364;18.582;2022-12-07T03:24:30;99283.16;;;1.57;100.00
48364;BME280;34170;54.364;18.582;2022-12-07T03:27:19;99282.03;;;1.73;100.00
48364;BME280;34170;54.364;18.582;2022-12-07T03:30:14;99278.47;;;1.61;100.00
48364;BME280;34170;54.364;18.582;2022-12-07T03:32:47;99268.91;;;1.71;100.00
48364;BME280;34170;54.364;18.582;2022-12-07T03:35:26;99267.34;;;1.68;100.00
48364;BME280;34170;54.364;18.582;2022-12-07T03:38:02;99267.97;;;1.72;100.00
48364;BME280;34170;54.364;18.582;2022-12-07T03:40:40;99268.56;;;1.51;100.00
48364;BME280;34170;54.364;18.582;2022-12-07T03:43:10;99255.47;;;1.37;100.00
48364;BME280;34170;54.364;18.582;2022-12-07T03:45:43;99260.63;;;1.51;100.00
48364;BME280;34170;54.364;18.582;2022-12-07T03:48:35;99256.28;;;1.50;100.00
48364;BME280;34170;54.364;18.582;2022-12-07T03:51:15;99254.59;;;1.49;100.00
48364;BME280;34170;54.364;18.582;2022-12-07T03:53:53;99255.66;;;1.47;100.00
48364;BME280;34170;54.364;18.582;2022-12-07T03:56:22;99249.16;;;1.75;100.00
48364;BME280;34170;54.364;18.582;2022-12-07T03:58:51;99246.94;;;1.58;100.00
48364;BME280;34170;54.364;18.582;2022-12-07T04:01:19;99232.78;;;1.70;100.00
48364;BME280;34170;54.364;18.582;2022-12-07T04:03:46;99238.88;;;1.59;100.00
48364;BME280;34170;54.364;18.582;2022-12-07T04:06:14;99232.69;;;1.59;100.00
48364;BME280;34170;54.364;18.582;2022-12-07T04:08:41;99227.16;;;1.50;100.00
48364;BME280;34170;54.364;18.582;2022-12-07T04:11:08;99228.31;;;1.46;100.00
48364;BME280;34170;54.364;18.582;2022-12-07T04:13:36;99217.59;;;1.48;100.00
48364;BME280;34170;54.364;18.582;2022-12-07T04:16:23;99219.00;;;1.41;100.00
48364;BME280;34170;54.364;18.582;2022-12-07T04:18:51;99214.22;;;1.46;100.00
48364;BME280;34170;54.364;18.582;2022-12-07T04:21:18;99202.72;;;1.34;100.00
48364;BME280;34170;54.364;18.582;2022-12-07T04:23:45;99204.94;;;1.40;100.00
48364;BME280;34170;54.364;18.582;2022-12-07T04:26:13;99207.53;;;1.29;100.00
48364;BME280;34170;54.364;18.582;2022-12-07T04:28:40;99202.72;;;1.34;100.00
48364;BME280;34170;54.364;18.582;2022-12-07T04:31:07;99209.13;;;1.67;100.00
48364;BME280;34170;54.364;18.582;2022-12-07T04:33:35;99207.50;;;1.53;100.00
48364;BME280;34170;54.364;18.582;2022-12-07T04:36:03;99204.94;;;1.40;100.00
48364;BME280;34170;54.364;18.582;2022-12-07T04:38:31;99212.69;;;1.55;100.00
48364;BME280;34170;54.364;18.582;2022-12-07T04:40:58;99215.94;;;1.47;100.00
48364;BME280;34170;54.364;18.582;2022-12-07T04:43:31;99212.63;;;1.67;100.00
48364;BME280;34170;54.364;18.582;2022-12-07T04:45:58;99196.22;;;1.62;100.00
48364;BME280;34170;54.364;18.582;2022-12-07T04:48:26;99203.91;;;1.54;100.00
48364;BME280;34170;54.364;18.582;2022-12-07T04:50:54;99202.00;;;1.92;100.00
48364;BME280;34170;54.364;18.582;2022-12-07T04:53:21;99194.47;;;1.74;100.00
48364;BME280;34170;54.364;18.582;2022-12-07T04:55:49;99195.31;;;1.75;100.00
48364;BME280;34170;54.364;18.582;2022-12-07T04:58:17;99189.75;;;1.66;100.00
48364;BME280;34170;54.364;18.582;2022-12-07T05:00:44;99196.50;;;1.70;100.00
48364;BME280;34170;54.364;18.582;2022-12-07T05:03:11;99198.13;;;1.96;100.00
48364;BME280;34170;54.364;18.582;2022-12-07T05:05:40;99183.13;;;1.72;100.00
48364;BME280;34170;54.364;18.582;2022-12-07T05:08:09;99173.16;;;1.76;100.00
48364;BME280;34170;54.364;18.582;2022-12-07T05:10:36;99180.84;;;1.79;100.00
48364;BME280;34170;54.364;18.582;2022-12-07T05:13:04;99184.47;;;1.78;100.00
48364;BME280;34170;54.364;18.582;2022-12-07T05:15:31;99179.69;;;1.94;100.00
48364;BME280;34170;54.364;18.582;2022-12-07T05:17:58;99178.94;;;1.81;100.00
48364;BME280;34170;54.364;18.582;2022-12-07T05:20:25;99164.25;;;1.88;100.00
48364;BME280;34170;54.364;18.582;2022-12-07T05:22:53;99168.13;;;1.95;100.00
48364;BME280;34170;54.364;18.582;2022-12-07T05:25:20;99166.13;;;1.75;100.00
48364;BME280;34170;54.364;18.582;2022-12-07T05:27:48;99163.88;;;1.93;100.00
48364;BME280;34170;54.364;18.582;2022-12-07T05:30:15;99169.50;;;1.77;100.00
48364;BME280;34170;54.364;18.582;2022-12-07T05:32:43;99172.81;;;1.92;100.00
48364;BME280;34170;54.364;18.582;2022-12-07T05:35:10;99167.03;;;1.98;100.00
48364;BME280;34170;54.364;18.582;2022-12-07T05:37:37;99162.69;;;1.97;100.00
48364;BME280;34170;54.364;18.582;2022-12-07T05:40:05;99165.09;;;2.00;100.00
48364;BME280;34170;54.364;18.582;2022-12-07T05:42:33;99171.25;;;2.00;100.00
48364;BME280;34170;54.364;18.582;2022-12-07T05:45:00;99172.00;;;2.14;100.00
48364;BME280;34170;54.364;18.582;2022-12-07T05:47:28;99156.69;;;2.17;100.00
48364;BME280;34170;54.364;18.582;2022-12-07T05:49:55;99166.94;;;2.10;100.00
48364;BME280;34170;54.364;18.582;2022-12-07T05:52:22;99164.66;;;2.06;100.00
48364;BME280;34170;54.364;18.582;2022-12-07T05:54:50;99154.16;;;2.04;100.00
48364;BME280;34170;54.364;18.582;2022-12-07T05:57:18;99158.97;;;1.99;100.00
48364;BME280;34170;54.364;18.582;2022-12-07T05:59:45;99148.97;;;1.92;100.00
48364;BME280;34170;54.364;18.582;2022-12-07T06:02:14;99154.53;;;2.11;100.00
48364;BME280;34170;54.364;18.582;2022-12-07T06:04:44;99150.78;;;2.14;100.00
48364;BME280;34170;54.364;18.582;2022-12-07T06:07:14;99148.84;;;2.04;100.00
48364;BME280;34170;54.364;18.582;2022-12-07T06:09:42;99155.31;;;1.89;100.00
48364;BME280;34170;54.364;18.582;2022-12-07T06:12:11;99154.88;;;2.18;100.00
48364;BME280;34170;54.364;18.582;2022-12-07T06:14:58;99153.91;;;2.07;100.00
48364;BME280;34170;54.364;18.582;2022-12-07T06:17:25;99146.69;;;2.09;100.00
48364;BME280;34170;54.364;18.582;2022-12-07T06:19:52;99135.47;;;2.17;100.00
48364;BME280;34170;54.364;18.582;2022-12-07T06:22:20;99139.94;;;2.17;100.00
48364;BME280;34170;54.364;18.582;2022-12-07T06:24:47;99142.00;;;2.24;100.00
48364;BME280;34170;54.364;18.582;2022-12-07T06:27:15;99123.06;;;1.95;100.00
48364;BME280;34170;54.364;18.582;2022-12-07T06:29:42;99128.81;;;2.00;100.00
48364;BME280;34170;54.364;18.582;2022-12-07T06:32:09;99127.09;;;1.65;100.00
48364;BME280;34170;54.364;18.582;2022-12-07T06:34:37;99123.84;;;1.73;100.00
48364;BME280;34170;54.364;18.582;2022-12-07T06:37:04;99122.78;;;1.76;100.00
48364;BME280;34170;54.364;18.582;2022-12-07T06:39:31;99112.53;;;1.71;100.00
48364;BME280;34170;54.364;18.582;2022-12-07T06:41:59;99116.31;;;1.56;100.00
48364;BME280;34170;54.364;18.582;2022-12-07T06:44:26;99109.97;;;1.58;100.00
48364;BME280;34170;54.364;18.582;2022-12-07T06:46:54;99126.78;;;1.46;100.00
48364;BME280;34170;54.364;18.582;2022-12-07T06:49:41;99112.13;;;1.53;100.00
48364;BME280;34170;54.364;18.582;2022-12-07T06:52:09;99117.22;;;1.67;100.00
48364;BME280;34170;54.364;18.582;2022-12-07T06:54:36;99115.72;;;1.52;100.00
48364;BME280;34170;54.364;18.582;2022-12-07T06:57:03;99122.44;;;1.45;100.00
48364;BME280;34170;54.364;18.582;2022-12-07T06:59:30;99109.44;;;1.42;100.00
48364;BME280;34170;54.364;18.582;2022-12-07T07:01:58;99109.44;;;1.42;100.00
48364;BME280;34170;54.364;18.582;2022-12-07T07:04:25;99118.63;;;1.25;100.00
48364;BME280;34170;54.364;18.582;2022-12-07T07:06:53;99113.59;;;1.22;100.00
48364;BME280;34170;54.364;18.582;2022-12-07T07:09:26;99106.31;;;1.12;100.00
48364;BME280;34170;54.364;18.582;2022-12-07T07:11:54;99113.75;;;1.31;100.00
48364;BME280;34170;54.364;18.582;2022-12-07T07:14:21;99105.59;;;1.46;100.00
48364;BME280;34170;54.364;18.582;2022-12-07T07:16:49;99105.38;;;1.49;100.00
48364;BME280;34170;54.364;18.582;2022-12-07T07:19:16;99102.53;;;1.75;100.00
48364;BME280;34170;54.364;18.582;2022-12-07T07:21:44;99099.63;;;1.66;100.00
48364;BME280;34170;54.364;18.582;2022-12-07T07:24:11;99109.56;;;1.51;100.00
48364;BME280;34170;54.364;18.582;2022-12-07T07:26:39;99103.44;;;1.51;100.00
48364;BME280;34170;54.364;18.582;2022-12-07T07:29:06;99106.72;;;1.66;100.00
48364;BME280;34170;54.364;18.582;2022-12-07T07:31:33;99102.97;;;1.57;100.00
48364;BME280;34170;54.364;18.582;2022-12-07T07:34:02;99115.44;;;1.79;100.00
48364;BME280;34170;54.364;18.582;2022-12-07T07:36:30;99115.25;;;1.58;100.00
48364;BME280;34170;54.364;18.582;2022-12-07T07:38:57;99115.06;;;1.73;100.00
48364;BME280;34170;54.364;18.582;2022-12-07T07:41:24;99113.56;;;1.57;100.00
48364;BME280;34170;54.364;18.582;2022-12-07T07:43:52;99098.31;;;1.83;100.00
48364;BME280;34170;54.364;18.582;2022-12-07T07:46:19;99098.31;;;1.83;100.00
48364;BME280;34170;54.364;18.582;2022-12-07T07:48:47;99095.31;;;1.88;100.00
48364;BME280;34170;54.364;18.582;2022-12-07T07:51:14;99091.19;;;1.84;100.00
48364;BME280;34170;54.364;18.582;2022-12-07T07:53:41;99092.06;;;1.96;100.00
48364;BME280;34170;54.364;18.582;2022-12-07T07:56:09;99099.66;;;1.89;100.00
48364;BME280;34170;54.364;18.582;2022-12-07T07:58:36;99089.78;;;2.02;100.00
48364;BME280;34170;54.364;18.582;2022-12-07T08:01:06;99099.41;;;2.03;100.00
48364;BME280;34170;54.364;18.582;2022-12-07T08:03:34;99089.44;;;2.18;100.00
48364;BME280;34170;54.364;18.582;2022-12-07T08:06:03;99096.53;;;2.18;100.00
48364;BME280;34170;54.364;18.582;2022-12-07T08:08:31;99084.13;;;2.18;100.00
48364;BME280;34170;54.364;18.582;2022-12-07T08:10:59;99091.09;;;2.42;100.00
48364;BME280;34170;54.364;18.582;2022-12-07T08:13:28;99090.97;;;2.43;100.00
48364;BME280;34170;54.364;18.582;2022-12-07T08:15:57;99090.44;;;2.72;100.00
48364;BME280;34170;54.364;18.582;2022-12-07T08:18:25;99087.75;;;2.83;100.00
48364;BME280;34170;54.364;18.582;2022-12-07T08:20:59;99086.50;;;2.99;100.00
48364;BME280;34170;54.364;18.582;2022-12-07T08:23:27;99090.09;;;2.98;100.00
48364;BME280;34170;54.364;18.582;2022-12-07T08:26:14;99089.03;;;3.21;100.00
48364;BME280;34170;54.364;18.582;2022-12-07T08:28:42;99089.09;;;3.10;100.00
48364;BME280;34170;54.364;18.582;2022-12-07T08:31:16;99087.97;;;2.80;100.00
48364;BME280;34170;54.364;18.582;2022-12-07T08:33:46;99079.53;;;2.75;100.00
48364;BME280;34170;54.364;18.582;2022-12-07T08:36:14;99076.72;;;2.44;100.00
48364;BME280;34170;54.364;18.582;2022-12-07T08:38:42;99090.22;;;2.53;100.00
48364;BME280;34170;54.364;18.582;2022-12-07T08:41:29;99084.34;;;2.26;100.00
48364;BME280;34170;54.364;18.582;2022-12-07T08:43:57;99092.81;;;2.20;100.00
48364;BME280;34170;54.364;18.582;2022-12-07T08:49:09;99081.81;;;2.14;100.00
48364;BME280;34170;54.364;18.582;2022-12-07T08:51:39;99075.75;;;2.34;100.00
48364;BME280;34170;54.364;18.582;2022-12-07T08:54:14;99082.66;;;2.25;100.00
48364;BME280;34170;54.364;18.582;2022-12-07T08:56:43;99076.50;;;2.36;100.00
48364;BME280;34170;54.364;18.582;2022-12-07T08:59:12;99078.91;;;2.39;100.00
48364;BME280;34170;54.364;18.582;2022-12-07T09:01:41;99071.34;;;2.12;100.00
48364;BME280;34170;54.364;18.582;2022-12-07T09:04:08;99065.19;;;2.23;100.00
48364;BME280;34170;54.364;18.582;2022-12-07T09:06:37;99074.84;;;2.01;100.00
48364;BME280;34170;54.364;18.582;2022-12-07T09:09:05;99068.31;;;2.05;100.00
48364;BME280;34170;54.364;18.582;2022-12-07T09:11:33;99057.59;;;1.96;100.00
48364;BME280;34170;54.364;18.582;2022-12-07T09:14:01;99050.94;;;2.13;100.00
48364;BME280;34170;54.364;18.582;2022-12-07T09:16:28;99059.88;;;2.23;100.00
48364;BME280;34170;54.364;18.582;2022-12-07T09:18:56;99058.19;;;2.10;100.00
48364;BME280;34170;54.364;18.582;2022-12-07T09:21:24;99062.03;;;2.18;100.00
48364;BME280;34170;54.364;18.582;2022-12-07T09:23:52;99054.34;;;2.03;100.00
48364;BME280;34170;54.364;18.582;2022-12-07T09:26:19;99061.31;;;2.27;100.00
48364;BME280;34170;54.364;18.582;2022-12-07T09:28:46;99059.63;;;2.26;100.00
48364;BME280;34170;54.364;18.582;2022-12-07T09:31:14;99054.47;;;2.13;100.00
48364;BME280;34170;54.364;18.582;2022-12-07T09:33:59;99056.38;;;2.22;100.00
48364;BME280;34170;54.364;18.582;2022-12-07T09:36:28;99056.75;;;2.06;100.00
48364;BME280;34170;54.364;18.582;2022-12-07T09:38:55;99060.84;;;2.10;100.00
48364;BME280;34170;54.364;18.582;2022-12-07T09:41:25;99061.09;;;2.19;100.00
48364;BME280;34170;54.364;18.582;2022-12-07T09:43:57;99064.19;;;2.35;100.00
48364;BME280;34170;54.364;18.582;2022-12-07T09:46:27;99065.16;;;2.34;100.00
48364;BME280;34170;54.364;18.582;2022-12-07T09:48:56;99066.63;;;2.38;100.00
48364;BME280;34170;54.364;18.582;2022-12-07T09:51:23;99055.28;;;2.36;100.00
48364;BME280;34170;54.364;18.582;2022-12-07T09:53:53;99064.78;;;2.39;100.00
48364;BME280;34170;54.364;18.582;2022-12-07T09:56:22;99070.19;;;2.60;100.00
48364;BME280;34170;54.364;18.582;2022-12-07T09:58:54;99057.66;;;2.39;100.00
48364;BME280;34170;54.364;18.582;2022-12-07T10:01:29;99057.88;;;2.59;100.00
48364;BME280;34170;54.364;18.582;2022-12-07T10:04:13;99057.47;;;2.75;100.00
48364;BME280;34170;54.364;18.582;2022-12-07T10:06:42;99069.69;;;2.66;100.00
48364;BME280;34170;54.364;18.582;2022-12-07T10:09:15;99065.31;;;2.76;100.00
48364;BME280;34170;54.364;18.582;2022-12-07T10:12:09;99074.22;;;2.75;100.00
48364;BME280;34170;54.364;18.582;2022-12-07T10:15:08;99066.69;;;2.48;100.00
48364;BME280;34170;54.364;18.582;2022-12-07T10:17:39;99064.53;;;2.53;100.00
48364;BME280;34170;54.364;18.582;2022-12-07T10:20:13;99070.78;;;2.63;100.00
48364;BME280;34170;54.364;18.582;2022-12-07T10:23:13;99054.25;;;2.60;100.00
48364;BME280;34170;54.364;18.582;2022-12-07T10:25:41;99049.72;;;2.51;100.00
48364;BME280;34170;54.364;18.582;2022-12-07T10:28:14;99042.06;;;2.69;100.00
48364;BME280;34170;54.364;18.582;2022-12-07T10:33:34;99053.94;;;2.85;100.00
48364;BME280;34170;54.364;18.582;2022-12-07T10:39:00;99039.44;;;2.90;100.00
48364;BME280;34170;54.364;18.582;2022-12-07T10:41:28;99037.22;;;3.06;100.00
48364;BME280;34170;54.364;18.582;2022-12-07T10:43:57;99020.88;;;2.46;100.00
48364;BME280;34170;54.364;18.582;2022-12-07T10:49:03;99020.41;;;2.84;100.00
48364;BME280;34170;54.364;18.582;2022-12-07T10:51:36;99019.47;;;2.74;100.00
48364;BME280;34170;54.364;18.582;2022-12-07T10:59:53;99024.94;;;2.94;100.00
48364;BME280;34170;54.364;18.582;2022-12-07T11:05:26;99018.16;;;3.22;100.00
48364;BME280;34170;54.364;18.582;2022-12-07T11:11:14;99010.91;;;3.03;100.00
48364;BME280;34170;54.364;18.582;2022-12-07T11:13:53;99017.69;;;2.96;100.00
48364;BME280;34170;54.364;18.582;2022-12-07T11:17:02;99004.78;;;2.59;100.00
48364;BME280;34170;54.364;18.582;2022-12-07T11:27:39;98997.06;;;2.67;100.00
48364;BME280;34170;54.364;18.582;2022-12-07T11:30:13;98991.50;;;2.70;100.00
48364;BME280;34170;54.364;18.582;2022-12-07T11:38:28;98980.16;;;2.89;100.00
48364;BME280;34170;54.364;18.582;2022-12-07T11:41:03;98972.31;;;2.88;100.00
48364;BME280;34170;54.364;18.582;2022-12-07T11:44:05;98972.34;;;2.55;100.00
48364;BME280;34170;54.364;18.582;2022-12-07T11:47:11;98977.91;;;2.52;100.00
48364;BME280;34170;54.364;18.582;2022-12-07T11:55:06;98970.81;;;2.41;100.00
48364;BME280;34170;54.364;18.582;2022-12-07T11:57:45;98964.13;;;2.26;100.00
48364;BME280;34170;54.364;18.582;2022-12-07T12:00:18;98965.91;;;2.37;100.00
48364;BME280;34170;54.364;18.582;2022-12-07T12:03:11;98957.13;;;2.25;100.00
48364;BME280;34170;54.364;18.582;2022-12-07T12:05:42;98956.75;;;2.29;100.00
48364;BME280;34170;54.364;18.582;2022-12-07T12:08:16;98945.22;;;2.19;100.00
48364;BME280;34170;54.364;18.582;2022-12-07T12:14:35;98955.81;;;2.19;100.00
48364;BME280;34170;54.364;18.582;2022-12-07T12:20:50;98947.31;;;2.04;100.00
48364;BME280;34170;54.364;18.582;2022-12-07T12:23:33;98933.66;;;2.09;100.00
48364;BME280;34170;54.364;18.582;2022-12-07T12:26:04;98932.59;;;2.00;100.00
48364;BME280;34170;54.364;18.582;2022-12-07T12:33:52;98920.75;;;2.16;100.00
48364;BME280;34170;54.364;18.582;2022-12-07T12:46:57;98922.56;;;2.04;100.00
48364;BME280;34170;54.364;18.582;2022-12-07T12:51:55;98908.72;;;2.12;100.00
48364;BME280;34170;54.364;18.582;2022-12-07T12:54:29;98909.22;;;1.94;100.00
48364;BME280;34170;54.364;18.582;2022-12-07T12:57:28;98908.72;;;2.00;100.00
48364;BME280;34170;54.364;18.582;2022-12-07T12:59:57;98891.63;;;2.04;100.00
48364;BME280;34170;54.364;18.582;2022-12-07T13:02:28;98903.00;;;2.16;100.00
48364;BME280;34170;54.364;18.582;2022-12-07T13:05:01;98887.84;;;2.07;100.00
48364;BME280;34170;54.364;18.582;2022-12-07T13:18:36;98885.44;;;2.15;100.00
48364;BME280;34170;54.364;18.582;2022-12-07T13:34:39;98881.28;;;1.90;100.00
48364;BME280;34170;54.364;18.582;2022-12-07T13:37:29;98891.63;;;2.04;100.00
48364;BME280;34170;54.364;18.582;2022-12-07T13:40:23;98888.69;;;2.07;100.00
48364;BME280;34170;54.364;18.582;2022-12-07T13:43:01;98883.56;;;1.95;100.00
48364;BME280;34170;54.364;18.582;2022-12-07T13:45:32;98882.88;;;1.81;100.00
48364;BME280;34170;54.364;18.582;2022-12-07T13:50:56;98887.75;;;2.08;100.00
48364;BME280;34170;54.364;18.582;2022-12-07T13:53:24;98877.19;;;1.97;100.00
48364;BME280;34170;54.364;18.582;2022-12-07T13:55:55;98877.94;;;1.88;100.00
48364;BME280;34170;54.364;18.582;2022-12-07T13:58:23;98872.75;;;1.86;100.00
48364;BME280;34170;54.364;18.582;2022-12-07T14:00:51;98871.63;;;1.89;100.00
48364;BME280;34170;54.364;18.582;2022-12-07T14:05:46;98867.88;;;1.59;100.00
48364;BME280;34170;54.364;18.582;2022-12-07T14:10:54;98863.75;;;1.55;100.00
48364;BME280;34170;54.364;18.582;2022-12-07T14:13:36;98854.50;;;1.49;100.00
48364;BME280;34170;54.364;18.582;2022-12-07T14:18:45;98854.16;;;1.20;100.00
48364;BME280;34170;54.364;18.582;2022-12-07T14:23:40;98847.75;;;1.00;100.00
48364;BME280;34170;54.364;18.582;2022-12-07T14:26:14;98855.38;;;1.27;100.00
48364;BME280;34170;54.364;18.582;2022-12-07T14:28:43;98844.91;;;1.26;100.00
48364;BME280;34170;54.364;18.582;2022-12-07T14:31:16;98850.88;;;1.39;100.00
48364;BME280;34170;54.364;18.582;2022-12-07T14:33:59;98849.34;;;1.25;100.00
48364;BME280;34170;54.364;18.582;2022-12-07T14:36:26;98847.91;;;1.21;100.00
48364;BME280;34170;54.364;18.582;2022-12-07T14:38:54;98841.66;;;1.22;100.00
48364;BME280;34170;54.364;18.582;2022-12-07T14:41:23;98844.06;;;1.25;100.00
48364;BME280;34170;54.364;18.582;2022-12-07T14:44:11;98843.56;;;1.31;100.00
48364;BME280;34170;54.364;18.582;2022-12-07T14:46:59;98846.94;;;1.22;100.00
48364;BME280;34170;54.364;18.582;2022-12-07T14:49:46;98846.56;;;1.27;100.00
48364;BME280;34170;54.364;18.582;2022-12-07T14:52:17;98838.75;;;1.25;100.00
48364;BME280;34170;54.364;18.582;2022-12-07T14:55:18;98844.53;;;1.42;100.00
48364;BME280;34170;54.364;18.582;2022-12-07T14:57:47;98843.94;;;1.38;100.00
48364;BME280;34170;54.364;18.582;2022-12-07T15:00:16;98841.88;;;1.30;100.00
48364;BME280;34170;54.364;18.582;2022-12-07T15:02:45;98834.19;;;1.27;100.00
48364;BME280;34170;54.364;18.582;2022-12-07T15:05:13;98845.75;;;1.15;100.00
48364;BME280;34170;54.364;18.582;2022-12-07T15:07:44;98843.81;;;1.06;100.00
48364;BME280;34170;54.364;18.582;2022-12-07T15:10:16;98841.28;;;1.04;100.00
48364;BME280;34170;54.364;18.582;2022-12-07T15:12:50;98847.19;;;1.08;100.00
48364;BME280;34170;54.364;18.582;2022-12-07T15:15:18;98828.28;;;1.24;100.00
48364;BME280;34170;54.364;18.582;2022-12-07T15:17:46;98848.75;;;0.99;100.00
48364;BME280;34170;54.364;18.582;2022-12-07T15:20:14;98839.72;;;1.13;100.00
48364;BME280;34170;54.364;18.582;2022-12-07T15:22:43;98830.09;;;1.12;100.00
48364;BME280;34170;54.364;18.582;2022-12-07T15:25:14;98839.00;;;1.22;100.00
48364;BME280;34170;54.364;18.582;2022-12-07T15:27:41;98837.53;;;1.29;100.00